createdAt,value
2022-09-21T00:02:26.841Z,14.10
2022-09-21T00:04:54.432Z,11.53
2022-09-21T00:07:23.324Z,12.55
2022-09-21T00:09:51.060Z,14.60
2022-09-21T00:12:19.669Z,13.43
2022-09-21T00:14:47.132Z,11.27
2022-09-21T00:17:14.596Z,16.63
2022-09-21T00:19:42.503Z,14.90
2022-09-21T00:22:10.349Z,12.13
2022-09-21T00:24:39.159Z,8.80
2022-09-21T00:27:06.735Z,9.40
2022-09-21T00:29:34.234Z,16.35
2022-09-21T00:32:01.915Z,12.20
2022-09-21T00:34:30.268Z,11.52
2022-09-21T00:36:57.732Z,12.65
2022-09-21T00:39:25.273Z,15.40
2022-09-21T00:41:54.099Z,12.52
2022-09-21T00:44:25.778Z,10.80
2022-09-21T00:46:54.710Z,12.60
2022-09-21T00:49:22.644Z,12.20
2022-09-21T00:51:51.146Z,12.77
2022-09-21T00:54:20.828Z,11.35
2022-09-21T00:56:48.796Z,13.77
2022-09-21T00:59:21.654Z,14.10
2022-09-21T01:01:50.019Z,15.65
2022-09-21T01:04:18.906Z,15.10
2022-09-21T01:06:47.920Z,15.10
2022-09-21T01:09:16.076Z,18.75
2022-09-21T01:11:48.825Z,14.53
2022-09-21T01:14:27.526Z,20.15
2022-09-21T01:17:02.417Z,15.10
2022-09-21T01:19:39.405Z,19.23
2022-09-21T01:22:11.685Z,12.68
2022-09-21T01:24:52.673Z,9.82
2022-09-21T01:27:26.694Z,11.97
2022-09-21T01:29:59.157Z,12.60
2022-09-21T01:32:27.996Z,14.85
2022-09-21T01:34:58.924Z,13.70
2022-09-21T01:37:27.615Z,18.90
2022-09-21T01:40:00.758Z,19.75
2022-09-21T01:42:29.427Z,14.20
2022-09-21T01:44:59.849Z,18.03
2022-09-21T01:47:28.076Z,11.00
2022-09-21T01:49:56.890Z,12.70
2022-09-21T01:52:26.305Z,14.20
2022-09-21T01:54:55.922Z,19.57
2022-09-21T01:57:26.824Z,12.43
2022-09-21T01:59:55.369Z,19.23
2022-09-21T02:02:27.404Z,18.40
2022-09-21T02:04:55.239Z,14.13
2022-09-21T02:07:22.877Z,11.07
2022-09-21T02:09:50.671Z,11.97
2022-09-21T02:12:19.362Z,13.77
2022-09-21T02:14:47.325Z,16.30
2022-09-21T02:17:23.689Z,10.33
2022-09-21T02:19:56.715Z,15.03
2022-09-21T02:22:31.962Z,15.70
2022-09-21T02:25:06.392Z,11.90
2022-09-21T02:27:36.513Z,13.52
2022-09-21T02:30:06.903Z,13.53
2022-09-21T02:32:37.503Z,12.80
2022-09-21T02:35:09.215Z,16.00
2022-09-21T02:37:38.338Z,16.70
2022-09-21T02:40:11.733Z,11.77
2022-09-21T02:42:41.782Z,18.38
2022-09-21T02:45:12.080Z,15.13
2022-09-21T02:47:42.954Z,16.60
2022-09-21T02:50:13.929Z,13.48
2022-09-21T02:52:43.211Z,12.43
2022-09-21T02:55:11.298Z,12.93
2022-09-21T02:57:39.371Z,15.40
2022-09-21T03:00:07.396Z,24.92
2022-09-21T03:02:38.508Z,17.10
2022-09-21T03:05:06.680Z,14.77
2022-09-21T03:07:35.775Z,12.70
2022-09-21T03:10:03.365Z,14.70
2022-09-21T03:12:31.137Z,15.93
2022-09-21T03:14:58.643Z,15.00
2022-09-21T03:17:26.573Z,13.40
2022-09-21T03:19:55.158Z,17.60
2022-09-21T03:22:22.900Z,16.77
2022-09-21T03:24:52.007Z,33.28
2022-09-21T03:27:21.023Z,12.73
2022-09-21T03:29:48.868Z,14.18
2022-09-21T03:32:16.559Z,13.13
2022-09-21T03:34:44.071Z,10.80
2022-09-21T03:37:11.874Z,19.48
2022-09-21T03:39:39.491Z,19.63
2022-09-21T03:42:09.975Z,10.65
2022-09-21T03:44:38.301Z,13.25
2022-09-21T03:47:06.799Z,10.20
2022-09-21T03:49:35.026Z,12.60
2022-09-21T03:52:02.738Z,22.48
2022-09-21T03:54:30.278Z,15.55
2022-09-21T03:56:57.964Z,13.30
2022-09-21T03:59:26.783Z,17.48
2022-09-21T04:01:54.410Z,21.00
2022-09-21T04:04:23.797Z,25.97
2022-09-21T04:06:52.011Z,20.43
2022-09-21T04:09:19.508Z,20.40
2022-09-21T04:11:48.285Z,33.35
2022-09-21T04:14:15.823Z,18.40
2022-09-21T04:16:44.941Z,14.70
2022-09-21T04:19:12.558Z,15.73
2022-09-21T04:21:40.176Z,44.42
2022-09-21T04:24:09.713Z,20.33
2022-09-21T04:26:37.489Z,18.52
2022-09-21T04:29:05.305Z,56.85
2022-09-21T04:31:32.908Z,27.40
2022-09-21T04:34:01.749Z,14.23
2022-09-21T04:36:34.318Z,27.02
2022-09-21T04:39:07.111Z,15.23
2022-09-21T04:41:34.743Z,12.77
2022-09-21T04:44:02.581Z,23.15
2022-09-21T04:46:30.466Z,14.27
2022-09-21T04:48:58.035Z,18.48
2022-09-21T04:51:26.974Z,20.17
2022-09-21T04:53:54.434Z,10.63
2022-09-21T04:56:21.957Z,9.47
2022-09-21T04:58:49.530Z,12.48
2022-09-21T05:01:17.124Z,15.40
2022-09-21T05:03:44.748Z,14.63
2022-09-21T05:06:13.444Z,12.57
2022-09-21T05:09:00.149Z,20.37
2022-09-21T05:11:28.064Z,17.83
2022-09-21T05:13:55.598Z,13.27
2022-09-21T05:16:26.616Z,21.27
2022-09-21T05:18:55.449Z,16.80
2022-09-21T05:21:24.222Z,19.30
2022-09-21T05:23:54.102Z,20.50
2022-09-21T05:26:21.833Z,22.80
2022-09-21T05:28:50.073Z,25.53
2022-09-21T05:31:26.683Z,31.33
2022-09-21T05:33:56.642Z,18.43
2022-09-21T05:36:32.546Z,16.37
2022-09-21T05:39:02.399Z,16.07
2022-09-21T05:41:30.996Z,15.73
2022-09-21T05:43:58.936Z,19.17
2022-09-21T05:46:36.825Z,21.57
2022-09-21T05:49:07.074Z,13.40
2022-09-21T05:51:39.487Z,17.37
2022-09-21T05:54:15.003Z,21.10
2022-09-21T05:56:49.909Z,21.33
2022-09-21T05:59:35.578Z,18.27
2022-09-21T06:02:08.882Z,14.18
2022-09-21T06:04:39.775Z,32.55
2022-09-21T06:07:07.576Z,19.73
2022-09-21T06:09:41.165Z,21.37
2022-09-21T06:12:11.803Z,25.10
2022-09-21T06:14:39.567Z,22.25
2022-09-21T06:17:07.714Z,16.97
2022-09-21T06:19:36.021Z,19.67
2022-09-21T06:22:03.691Z,22.00
2022-09-21T06:24:31.466Z,19.58
2022-09-21T06:27:00.494Z,30.65
2022-09-21T06:29:28.478Z,21.75
2022-09-21T06:31:56.333Z,23.15
2022-09-21T06:34:24.044Z,22.17
2022-09-21T06:36:51.749Z,14.13
2022-09-21T06:39:21.795Z,21.40
2022-09-21T06:41:49.651Z,12.68
2022-09-21T06:44:18.758Z,13.55
2022-09-21T06:46:46.369Z,19.25
2022-09-21T06:49:16.609Z,22.70
2022-09-21T06:51:48.624Z,25.55
2022-09-21T06:54:16.571Z,19.65
2022-09-21T06:56:44.428Z,18.83
2022-09-21T06:59:15.309Z,16.58
2022-09-21T07:01:44.650Z,14.83
2022-09-21T07:04:15.224Z,11.98
2022-09-21T07:06:44.321Z,13.35
2022-09-21T07:12:03.257Z,14.38
2022-09-21T07:14:34.207Z,13.18
2022-09-21T07:17:03.512Z,20.35
2022-09-21T07:19:31.732Z,13.70
2022-09-21T07:21:59.373Z,17.23
2022-09-21T07:24:27.104Z,13.05
2022-09-21T07:26:55.657Z,13.35
2022-09-21T07:29:24.906Z,19.95
2022-09-21T07:31:57.546Z,18.98
2022-09-21T07:34:30.190Z,14.70
2022-09-21T07:36:58.021Z,14.30
2022-09-21T07:39:28.298Z,22.05
2022-09-21T07:41:59.501Z,23.83
2022-09-21T07:44:28.459Z,17.98
2022-09-21T07:47:06.168Z,15.70
2022-09-21T07:49:35.490Z,12.65
2022-09-21T07:52:10.432Z,12.65
2022-09-21T07:54:41.528Z,10.23
2022-09-21T07:57:29.036Z,8.95
2022-09-21T07:59:58.724Z,12.00
2022-09-21T08:02:32.327Z,12.95
2022-09-21T08:05:01.704Z,10.05
2022-09-21T08:07:29.414Z,8.77
2022-09-21T08:09:58.580Z,10.70
2022-09-21T08:12:26.461Z,11.02
2022-09-21T08:14:54.244Z,8.80
2022-09-21T08:17:22.439Z,9.18
2022-09-21T08:19:52.672Z,8.25
2022-09-21T08:22:28.108Z,11.52
2022-09-21T08:24:57.207Z,9.05
2022-09-21T08:27:28.052Z,7.45
2022-09-21T08:29:55.846Z,10.95
2022-09-21T08:32:46.865Z,10.52
2022-09-21T08:35:11.606Z,5.32
2022-09-21T08:37:40.733Z,6.43
2022-09-21T08:40:09.386Z,6.13
2022-09-21T08:42:41.564Z,6.53
2022-09-21T08:45:15.708Z,5.50
2022-09-21T08:47:45.294Z,5.97
2022-09-21T08:50:20.962Z,6.10
2022-09-21T08:52:53.498Z,4.20
2022-09-21T08:55:22.035Z,7.10
2022-09-21T08:57:50.675Z,6.07
2022-09-21T09:00:19.632Z,3.47
2022-09-21T09:02:58.193Z,5.72
2022-09-21T09:05:34.412Z,4.50
2022-09-21T09:08:16.092Z,2.90
2022-09-21T09:10:46.859Z,5.95
2022-09-21T09:13:22.352Z,8.93
2022-09-21T09:15:57.009Z,4.88
2022-09-21T09:18:29.376Z,3.20
2022-09-21T09:20:58.634Z,4.07
2022-09-21T09:23:30.082Z,3.33
2022-09-21T09:26:03.075Z,1.77
2022-09-21T09:28:33.359Z,2.95
2022-09-21T09:31:02.520Z,2.20
2022-09-21T09:33:32.483Z,3.40
2022-09-21T09:36:04.470Z,3.60
2022-09-21T09:38:37.788Z,2.35
2022-09-21T09:41:17.986Z,2.15
2022-09-21T09:43:52.297Z,1.48
2022-09-21T09:46:26.931Z,2.08
2022-09-21T09:49:08.342Z,2.38
2022-09-21T09:51:36.757Z,2.88
2022-09-21T09:54:10.168Z,2.25
2022-09-21T09:56:38.470Z,2.15
2022-09-21T09:59:08.336Z,2.90
2022-09-21T10:01:42.322Z,4.68
2022-09-21T10:04:11.386Z,2.05
2022-09-21T10:06:45.114Z,1.98
2022-09-21T10:09:24.890Z,3.25
2022-09-21T10:11:53.004Z,1.73
2022-09-21T10:14:23.038Z,1.95
2022-09-21T10:16:52.934Z,2.10
2022-09-21T10:19:22.475Z,5.55
2022-09-21T10:21:52.579Z,1.90
2022-09-21T10:24:24.449Z,1.35
2022-09-21T10:26:54.909Z,1.67
2022-09-21T10:29:33.569Z,1.35
2022-09-21T10:32:02.264Z,3.15
2022-09-21T10:34:31.488Z,1.60
2022-09-21T10:37:00.199Z,2.83
2022-09-21T10:39:30.384Z,4.00
2022-09-21T10:42:00.447Z,1.15
2022-09-21T10:44:29.429Z,1.58
2022-09-21T10:47:00.862Z,2.35
2022-09-21T10:49:29.806Z,1.27
2022-09-21T10:51:58.668Z,2.97
2022-09-21T10:54:27.580Z,1.20
2022-09-21T10:57:00.474Z,1.48
2022-09-21T10:59:29.919Z,2.10
2022-09-21T11:02:01.044Z,4.00
2022-09-21T11:04:35.726Z,1.85
2022-09-21T11:07:07.097Z,1.98
2022-09-21T11:09:40.508Z,3.28
2022-09-21T11:12:23.173Z,2.53
2022-09-21T11:14:57.183Z,1.05
2022-09-21T11:17:28.930Z,3.10
2022-09-21T11:19:58.747Z,1.92
2022-09-21T11:22:32.157Z,1.13
2022-09-21T11:25:07.327Z,2.17
2022-09-21T11:27:38.484Z,1.25
2022-09-21T11:30:08.623Z,1.08
2022-09-21T11:32:55.855Z,1.55
2022-09-21T11:35:34.691Z,1.30
2022-09-21T11:38:06.264Z,1.00
2022-09-21T11:40:41.401Z,1.42
2022-09-21T11:43:15.681Z,2.28
2022-09-21T11:45:58.329Z,1.05
2022-09-21T11:48:36.689Z,1.35
2022-09-21T11:51:11.987Z,1.00
2022-09-21T11:53:47.242Z,0.95
2022-09-21T11:56:27.228Z,1.00
2022-09-21T11:59:07.230Z,1.20
2022-09-21T12:01:48.775Z,0.77
2022-09-21T12:04:30.716Z,2.85
2022-09-21T12:07:07.088Z,0.93
2022-09-21T12:09:44.052Z,1.85
2022-09-21T12:12:14.616Z,1.13
2022-09-21T12:14:50.485Z,0.90
2022-09-21T12:17:24.523Z,1.30
2022-09-21T12:19:56.020Z,0.93
2022-09-21T12:22:26.925Z,1.48
2022-09-21T12:24:57.070Z,1.10
2022-09-21T12:27:29.409Z,2.03
2022-09-21T12:30:06.608Z,0.95
2022-09-21T12:32:41.027Z,1.17
2022-09-21T12:35:15.083Z,1.38
2022-09-21T12:37:46.399Z,1.25
2022-09-21T12:40:20.342Z,0.93
2022-09-21T12:42:50.860Z,1.05
2022-09-21T12:45:25.953Z,1.35
2022-09-21T12:48:00.571Z,1.05
2022-09-21T12:50:33.488Z,1.55
2022-09-21T12:53:01.813Z,1.00
2022-09-21T12:55:45.666Z,1.40
2022-09-21T12:58:29.824Z,1.55
2022-09-21T13:01:05.660Z,1.10
2022-09-21T13:03:36.644Z,1.40
2022-09-21T13:06:14.016Z,1.90
2022-09-21T13:11:21.506Z,2.28
2022-09-21T13:13:53.789Z,1.15
2022-09-21T13:16:27.026Z,1.00
2022-09-21T13:18:59.340Z,1.23
2022-09-21T13:21:30.220Z,1.00
2022-09-21T13:23:59.384Z,2.63
2022-09-21T13:26:33.403Z,0.90
2022-09-21T13:29:03.739Z,1.30
2022-09-21T13:31:46.843Z,3.65
2022-09-21T13:34:22.014Z,1.13
2022-09-21T13:37:08.551Z,2.20
2022-09-21T13:39:36.585Z,1.15
2022-09-21T13:42:19.225Z,1.42
2022-09-21T13:44:47.765Z,1.20
2022-09-21T13:47:29.196Z,2.35
2022-09-21T13:50:00.798Z,1.88
2022-09-21T13:52:31.479Z,1.35
2022-09-21T13:55:00.818Z,1.20
2022-09-21T13:57:32.600Z,1.10
2022-09-21T14:00:29.218Z,1.75
2022-09-21T14:03:00.286Z,1.13
2022-09-21T14:05:33.314Z,1.02
2022-09-21T14:08:05.347Z,1.48
2022-09-21T14:10:37.867Z,1.20
2022-09-21T14:13:12.655Z,3.58
2022-09-21T14:15:41.245Z,1.27
2022-09-21T14:18:20.903Z,1.30
2022-09-21T14:21:07.901Z,1.55
2022-09-21T14:23:41.089Z,1.10
2022-09-21T14:26:25.776Z,0.98
2022-09-21T14:29:17.816Z,1.15
2022-09-21T14:31:49.236Z,1.25
2022-09-21T14:34:24.731Z,1.20
2022-09-21T14:36:54.408Z,3.10
2022-09-21T14:39:28.680Z,2.13
2022-09-21T14:44:45.234Z,1.10
2022-09-21T14:47:32.740Z,1.23
2022-09-21T14:50:14.364Z,2.05
2022-09-21T14:52:51.166Z,1.65
2022-09-21T14:55:35.941Z,1.10
2022-09-21T14:58:12.380Z,1.10
2022-09-21T15:00:44.051Z,1.13
2022-09-21T15:03:30.765Z,0.80
2022-09-21T15:06:22.457Z,0.88
2022-09-21T15:09:10.773Z,1.23
2022-09-21T15:11:52.473Z,1.77
2022-09-21T15:14:29.396Z,1.55
2022-09-21T15:16:58.242Z,1.15
2022-09-21T15:19:29.670Z,1.67
2022-09-21T15:21:58.468Z,1.08
2022-09-21T15:24:28.346Z,1.00
2022-09-21T15:27:18.596Z,0.90
2022-09-21T15:29:54.986Z,1.00
2022-09-21T15:32:25.921Z,1.00
2022-09-21T15:35:01.356Z,1.90
2022-09-21T15:37:30.518Z,2.40
2022-09-21T15:40:02.199Z,3.03
2022-09-21T15:42:31.534Z,2.78
2022-09-21T15:45:14.825Z,1.20
2022-09-21T15:47:45.313Z,1.90
2022-09-21T15:50:13.940Z,1.15
2022-09-21T15:52:43.664Z,1.95
2022-09-21T15:55:13.241Z,1.40
2022-09-21T15:57:45.216Z,1.35
2022-09-21T16:00:20.552Z,1.20
2022-09-21T16:03:05.693Z,1.08
2022-09-21T16:05:48.370Z,1.10
2022-09-21T16:08:37.503Z,3.65
2022-09-21T16:11:20.327Z,1.98
2022-09-21T16:14:16.739Z,2.42
2022-09-21T16:17:02.155Z,0.90
2022-09-21T16:19:43.389Z,7.07
2022-09-21T16:22:16.157Z,1.08
2022-09-21T16:24:47.796Z,1.10
2022-09-21T16:27:20.547Z,1.80
2022-09-21T16:29:50.447Z,1.10
2022-09-21T16:32:23.469Z,1.35
2022-09-21T16:34:52.019Z,2.13
2022-09-21T16:37:24.703Z,1.30
2022-09-21T16:39:53.050Z,1.60
2022-09-21T16:42:21.481Z,1.20
2022-09-21T16:44:56.528Z,1.85
2022-09-21T16:47:26.650Z,1.60
2022-09-21T16:49:56.542Z,1.20
2022-09-21T16:52:25.781Z,1.27
2022-09-21T16:54:58.558Z,1.35
2022-09-21T16:57:29.934Z,2.78
2022-09-21T17:00:00.682Z,1.05
2022-09-21T17:02:31.267Z,2.95
2022-09-21T17:04:59.931Z,1.50
2022-09-21T17:07:30.707Z,1.92
2022-09-21T17:10:01.594Z,2.15
2022-09-21T17:12:30.916Z,2.97
2022-09-21T17:15:01.030Z,2.08
2022-09-21T17:17:29.597Z,2.45
2022-09-21T17:19:57.139Z,2.03
2022-09-21T17:22:25.456Z,3.17
2022-09-21T17:24:54.766Z,3.65
2022-09-21T17:27:23.261Z,5.68
2022-09-21T17:29:51.118Z,6.30
2022-09-21T17:32:21.304Z,6.15
2022-09-21T17:34:50.281Z,5.25
2022-09-21T17:37:17.984Z,7.53
2022-09-21T17:39:45.730Z,11.57
2022-09-21T17:42:19.060Z,12.50
2022-09-21T17:44:53.032Z,16.70
2022-09-21T17:47:24.641Z,6.45
2022-09-21T17:49:52.400Z,2.67
2022-09-21T17:52:38.471Z,1.80
2022-09-21T17:55:08.460Z,3.17
2022-09-21T17:57:41.917Z,4.28
2022-09-21T18:00:14.443Z,2.28
2022-09-21T18:02:43.631Z,1.63
2022-09-21T18:05:16.525Z,2.42
2022-09-21T18:07:45.270Z,1.20
2022-09-21T18:10:14.046Z,1.50
2022-09-21T18:13:02.756Z,1.65
2022-09-21T18:15:36.540Z,1.88
2022-09-21T18:18:08.963Z,1.20
2022-09-21T18:20:41.140Z,1.38
2022-09-21T18:23:20.686Z,6.57
2022-09-21T18:25:51.947Z,6.72
2022-09-21T18:28:23.714Z,3.92
2022-09-21T18:30:59.986Z,5.38
2022-09-21T18:33:35.185Z,4.28
2022-09-21T18:36:08.187Z,2.15
2022-09-21T18:38:38.538Z,2.97
2022-09-21T18:41:11.196Z,4.75
2022-09-21T18:43:46.455Z,1.52
2022-09-21T18:46:17.983Z,3.80
2022-09-21T18:48:51.121Z,1.58
2022-09-21T18:51:22.098Z,1.83
2022-09-21T18:53:53.156Z,1.88
2022-09-21T18:56:21.250Z,2.17
2022-09-21T18:58:49.535Z,2.13
2022-09-21T19:01:19.071Z,2.10
2022-09-21T19:03:49.563Z,3.03
2022-09-21T19:06:34.960Z,4.68
2022-09-21T19:09:06.862Z,12.73
2022-09-21T19:11:43.370Z,9.45
2022-09-21T19:14:16.009Z,11.95
2022-09-21T19:16:48.709Z,7.97
2022-09-21T19:19:22.547Z,5.25
2022-09-21T19:21:53.261Z,3.22
2022-09-21T19:24:25.333Z,5.10
2022-09-21T19:26:59.690Z,5.72
2022-09-21T19:29:38.280Z,6.53
2022-09-21T19:32:11.751Z,15.30
2022-09-21T19:34:44.199Z,11.90
2022-09-21T19:37:11.914Z,7.93
2022-09-21T19:39:39.723Z,11.60
2022-09-21T19:42:11.556Z,8.93
2022-09-21T19:44:43.254Z,5.00
2022-09-21T19:47:14.362Z,6.63
2022-09-21T19:49:48.400Z,6.55
2022-09-21T19:52:18.677Z,4.85
2022-09-21T19:55:04.302Z,9.02
2022-09-21T19:57:49.873Z,3.55
2022-09-21T20:00:18.760Z,3.38
2022-09-21T20:02:53.357Z,8.38
2022-09-21T20:05:25.199Z,8.00
2022-09-21T20:07:54.312Z,6.00
2022-09-21T20:10:38.910Z,4.35
2022-09-21T20:13:50.181Z,3.85
2022-09-21T20:16:26.447Z,5.53
2022-09-21T20:18:56.594Z,5.63
2022-09-21T20:21:28.810Z,3.90
2022-09-21T20:23:59.991Z,4.68
2022-09-21T20:26:30.463Z,5.75
2022-09-21T20:28:58.770Z,6.18
2022-09-21T20:31:31.236Z,8.48
2022-09-21T20:34:05.054Z,5.57
2022-09-21T20:36:36.334Z,5.38
2022-09-21T20:39:07.289Z,4.18
2022-09-21T20:41:35.018Z,4.85
2022-09-21T20:44:03.820Z,6.18
2022-09-21T20:46:32.051Z,5.68
2022-09-21T20:49:04.596Z,5.65
2022-09-21T20:51:34.050Z,9.65
2022-09-21T20:54:03.387Z,7.90
2022-09-21T20:56:32.552Z,6.65
2022-09-21T20:59:00.420Z,5.82
2022-09-21T21:01:28.709Z,5.88
2022-09-21T21:04:02.004Z,13.05
2022-09-21T21:06:31.392Z,7.07
2022-09-21T21:08:59.579Z,8.35
2022-09-21T21:11:29.030Z,7.72
2022-09-21T21:13:59.245Z,8.32
2022-09-21T21:16:28.312Z,9.63
2022-09-21T21:18:56.568Z,9.15
2022-09-21T21:21:24.670Z,9.10
2022-09-21T21:24:11.939Z,5.78
2022-09-21T21:27:00.887Z,8.45
2022-09-21T21:29:28.914Z,6.32
2022-09-21T21:31:56.413Z,7.63
2022-09-21T21:34:24.224Z,5.30
2022-09-21T21:36:51.803Z,6.72
2022-09-21T21:39:19.339Z,7.25
2022-09-21T21:41:47.751Z,8.20
2022-09-21T21:44:15.744Z,7.32
2022-09-21T21:46:44.859Z,6.25
2022-09-21T21:49:16.090Z,4.53
2022-09-21T21:51:44.988Z,7.90
2022-09-21T21:54:15.312Z,7.28
2022-09-21T21:56:42.875Z,5.95
2022-09-21T21:59:15.408Z,6.63
2022-09-21T22:01:47.149Z,5.78
2022-09-21T22:04:15.830Z,6.15
2022-09-21T22:06:43.505Z,7.00
2022-09-21T22:09:11.930Z,9.00
2022-09-21T22:11:39.974Z,6.38
2022-09-21T22:14:08.459Z,4.70
2022-09-21T22:16:37.855Z,6.30
2022-09-21T22:19:07.829Z,5.57
2022-09-21T22:21:36.556Z,5.35
2022-09-21T22:24:16.065Z,9.90
2022-09-21T22:26:45.710Z,5.95
2022-09-21T22:29:14.343Z,4.60
2022-09-21T22:31:43.181Z,7.22
2022-09-21T22:34:12.730Z,7.22
2022-09-21T22:36:43.120Z,7.82
2022-09-21T22:39:10.986Z,7.10
2022-09-21T22:41:44.041Z,9.63
2022-09-21T22:44:18.717Z,6.93
2022-09-21T22:46:52.148Z,7.00
2022-09-21T22:49:21.945Z,8.85
2022-09-21T22:51:49.589Z,7.72
2022-09-21T22:54:17.098Z,6.35
2022-09-21T22:56:44.674Z,9.95
2022-09-21T22:59:12.649Z,7.68
2022-09-21T23:01:41.271Z,7.85
2022-09-21T23:04:09.843Z,7.30
2022-09-21T23:06:42.175Z,7.25
2022-09-21T23:09:13.934Z,9.50
2022-09-21T23:11:42.818Z,5.32
2022-09-21T23:14:12.686Z,9.50
2022-09-21T23:16:40.529Z,11.30
2022-09-21T23:19:15.325Z,8.45
2022-09-21T23:21:44.888Z,8.13
2022-09-21T23:24:12.868Z,9.20
2022-09-21T23:26:40.548Z,7.00
2022-09-21T23:29:11.956Z,8.98
2022-09-21T23:31:44.466Z,10.20
2022-09-21T23:34:18.891Z,8.38
2022-09-21T23:36:59.211Z,7.78
2022-09-21T23:39:27.169Z,8.65
2022-09-21T23:41:54.947Z,13.32
2022-09-21T23:44:22.780Z,8.45
2022-09-21T23:46:50.509Z,8.00
2022-09-21T23:49:18.427Z,6.22
2022-09-21T23:51:46.178Z,8.77
2022-09-21T23:54:16.261Z,6.53
2022-09-21T23:56:44.740Z,6.57
2022-09-21T23:59:12.598Z,9.90
